METAR Data
IDs: Format: Raw Decoded Include TAF

Data at: 0628 UTC 01 Aug 2021

EDDW 010620Z 23007KT 9000 BKN006 15/14 Q1007 TEMPO SCT008